PWSweather.com
Personal Weather Stations
Station Observations
WIKENOS15
47th Ave & 30th St, Kenosha, WI 53144

47th Ave & 30th StKenosha, WI 53144

Lat: 42.612, Lon: -87.866

Elevation: 697

Station Type: Oregon Scientific 100N

High Low Average
Temperature 32.0°F0.0°C 24.8°F-4.0°C 27.3°F-2.6°C
Dew Point 23.2°F-4.9°C 20.3°F-6.5°C 22.1°F-5.5°C
Winds 7.9 mph 12.7 kmh 3.6 mph 5.8 kmh 5.0 mph WNW8.0 kmh WNW
Wind Gusts 11.7 mph18.8 kmh 3.9 mph6.3 kmh 7.0 mph11.3 kmh
Humidity 91% 68% 81%
Pressure 29.82 in1009.8 mb 29.74 in1007.1 mb -
Precipitation 0.00 in0.0 mm - -
Hour Temp Dew Point Humidity Winds Wind Gusts Pressure Precip Precip Rate Daily Precip Total
12:00 AM 25.3°F-3.7°C 20.3°F-6.5°C 81% 6.4 mph W10.3 kmh W 7.1 mph11.4 kmh 29.74 in1007.1 mb 0.00 in0.0 mm 0.00 in/hr0.0 mm/hr 0.00 in0.0 mm
01:00 AM 25.7°F-3.5°C 21.8°F-5.7°C 85% 5.4 mph W8.7 kmh W 7.6 mph12.2 kmh 29.74 in1007.1 mb 0.00 in0.0 mm 0.00 in/hr0.0 mm/hr 0.00 in0.0 mm
02:00 AM 25.3°F-3.7°C 22.3°F-5.4°C 88% 5.9 mph W9.5 kmh W 6.7 mph10.8 kmh 29.74 in1007.1 mb 0.00 in0.0 mm 0.00 in/hr0.0 mm/hr 0.00 in0.0 mm
03:00 AM 25.5°F-3.6°C 21.6°F-5.8°C 85% 4.3 mph WNW6.9 kmh WNW 5.8 mph9.3 kmh 29.74 in1007.1 mb 0.00 in0.0 mm 0.00 in/hr0.0 mm/hr 0.00 in0.0 mm
04:00 AM 25.5°F-3.6°C 21.9°F-5.6°C 86% 4.0 mph WNW6.4 kmh WNW 4.8 mph7.7 kmh 29.74 in1007.1 mb 0.00 in0.0 mm 0.00 in/hr0.0 mm/hr 0.00 in0.0 mm
05:00 AM 25.2°F-3.8°C 22.1°F-5.5°C 88% 4.5 mph W7.2 kmh W 4.8 mph7.7 kmh 29.74 in1007.1 mb 0.00 in0.0 mm 0.00 in/hr0.0 mm/hr 0.00 in0.0 mm
06:00 AM 24.8°F-4.0°C 22.5°F-5.3°C 91% 5.1 mph NW8.2 kmh NW 6.7 mph10.8 kmh 29.74 in1007.1 mb 0.00 in0.0 mm 0.00 in/hr0.0 mm/hr 0.00 in0.0 mm
07:00 AM 24.8°F-4.0°C 22.5°F-5.3°C 91% 4.5 mph W7.2 kmh W 5.3 mph8.5 kmh 29.77 in1008.1 mb 0.00 in0.0 mm 0.00 in/hr0.0 mm/hr 0.00 in0.0 mm
08:00 AM 25.7°F-3.5°C 23.2°F-4.9°C 90% 5.5 mph W8.9 kmh W 6.7 mph10.8 kmh 29.77 in1008.1 mb 0.00 in0.0 mm 0.00 in/hr0.0 mm/hr 0.00 in0.0 mm
09:00 AM 27.1°F-2.7°C 22.9°F-5.1°C 84% 5.6 mph NW9.0 kmh NW 6.7 mph10.8 kmh 29.80 in1009.1 mb 0.00 in0.0 mm 0.00 in/hr0.0 mm/hr 0.00 in0.0 mm
10:00 AM 29.1°F-1.6°C 23.1°F-4.9°C 78% 4.0 mph WNW6.4 kmh WNW 7.1 mph11.4 kmh 29.80 in1009.1 mb 0.00 in0.0 mm 0.00 in/hr0.0 mm/hr 0.00 in0.0 mm
11:00 AM 32.0°F0.0°C 23.0°F-5.0°C 69% 3.9 mph NW6.3 kmh NW 5.3 mph8.5 kmh 29.80 in1009.1 mb 0.00 in0.0 mm 0.00 in/hr0.0 mm/hr 0.00 in0.0 mm
12:00 PM 30.1°F-1.1°C 23.1°F-4.9°C 75% 5.9 mph NNW9.5 kmh NNW 7.1 mph11.4 kmh 29.80 in1009.1 mb 0.00 in0.0 mm 0.00 in/hr0.0 mm/hr 0.00 in0.0 mm
01:00 PM 29.7°F-1.3°C 20.4°F-6.4°C 68% 6.1 mph NW9.8 kmh NW 7.6 mph12.2 kmh 29.80 in1009.1 mb 0.00 in0.0 mm 0.00 in/hr0.0 mm/hr 0.00 in0.0 mm
02:00 PM 30.2°F-1.0°C 21.9°F-5.6°C 71% 5.3 mph NNW8.5 kmh NNW 6.2 mph10.0 kmh 29.77 in1008.1 mb 0.00 in0.0 mm 0.00 in/hr0.0 mm/hr 0.00 in0.0 mm
03:00 PM 30.3°F-0.9°C 21.6°F-5.8°C 70% 3.6 mph NW5.8 kmh NW 3.9 mph6.3 kmh 29.80 in1009.1 mb 0.00 in0.0 mm 0.00 in/hr0.0 mm/hr 0.00 in0.0 mm
04:00 PM 27.5°F-2.5°C 21.5°F-5.8°C 78% 4.0 mph NNE6.4 kmh NNE 6.7 mph10.8 kmh 29.80 in1009.1 mb 0.00 in0.0 mm 0.00 in/hr0.0 mm/hr 0.00 in0.0 mm
05:00 PM 27.0°F-2.8°C 22.5°F-5.3°C 83% 7.9 mph N12.7 kmh N 11.7 mph18.8 kmh 29.82 in1009.8 mb 0.00 in0.0 mm 0.00 in/hr0.0 mm/hr 0.00 in0.0 mm
06:00 PM 26.8°F-2.9°C 22.3°F-5.4°C 83% 3.8 mph NW6.1 kmh NW 3.9 mph6.3 kmh 29.86 in1011.2 mb 0.00 in0.0 mm 0.00 in/hr0.0 mm/hr 0.00 in0.0 mm
07:00 PM 26.4°F-3.1°C 23.0°F-5.0°C 87% 5.9 mph NNW9.5 kmh NNW 7.1 mph11.4 kmh 29.88 in1011.9 mb 0.00 in0.0 mm 0.00 in/hr0.0 mm/hr 0.00 in0.0 mm
08:00 PM 25.5°F-3.6°C 24.0°F-4.4°C 94% 6.4 mph NNW10.3 kmh NNW 7.1 mph11.4 kmh 29.88 in1011.9 mb 0.00 in0.0 mm 0.00 in/hr0.0 mm/hr 0.00 in0.0 mm
09:00 PM 24.4°F-4.2°C 21.7°F-5.7°C 89% 11.4 mph N18.3 kmh N 11.3 mph18.2 kmh 29.91 in1012.9 mb 0.00 in0.0 mm 0.00 in/hr0.0 mm/hr 0.00 in0.0 mm
10:00 PM 23.2°F-4.9°C 18.2°F-7.7°C 81% 10.8 mph NNW17.4 kmh NNW 11.3 mph18.2 kmh 29.91 in1012.9 mb 0.00 in0.0 mm 0.00 in/hr0.0 mm/hr 0.00 in0.0 mm
11:00 PM 23.0°F-5.0°C 18.3°F-7.6°C 82% 7.5 mph N12.1 kmh N 9.9 mph15.9 kmh 29.94 in1013.9 mb 0.00 in0.0 mm 0.00 in/hr0.0 mm/hr 0.00 in0.0 mm